<?xml version="1.0" encoding="UTF-8" standalone="no" ?>
<gpx xmlns="http://www.topografix.com/GPX/1/1" xmlns:xsi="http://www.w3.org/2001/XMLSchema-instance" xsi:schemaLocation="http://www.topografix.com/GPX/1/1 http://www.topografix.com/GPX/1/1/gpx.xsd" version="1.1" creator="VisuGPX - https://www.visugpx.com">
  <metadata>
    <name>Boucle en Dordogne (14juil22)</name>
  </metadata>
  <trk>
    <name><![CDATA[P1_Frontenac - Loubes Bernac (48)]]></name>
    <trkseg>
      <trkpt lat="44.72953" lon="-0.16978">
        <ele>49.1</ele>
      </trkpt>
      <trkpt lat="44.72928" lon="-0.16853">
        <ele>52.4</ele>
      </trkpt>
      <trkpt lat="44.72823" lon="-0.16874">
        <ele>52.4</ele>
      </trkpt>
      <trkpt lat="44.72566" lon="-0.16943">
        <ele>56.4</ele>
      </trkpt>
      <trkpt lat="44.7237" lon="-0.16831">
        <ele>59.1</ele>
      </trkpt>
      <trkpt lat="44.71992" lon="-0.16651">
        <ele>63.7</ele>
      </trkpt>
      <trkpt lat="44.71492" lon="-0.16789">
        <ele>58.6</ele>
      </trkpt>
      <trkpt lat="44.71193" lon="-0.16574">
        <ele>63.6</ele>
      </trkpt>
      <trkpt lat="44.71148" lon="-0.16557">
        <ele>60.21397</ele>
        <time>2022-07-11T13:22:08.512Z</time>
      </trkpt>
      <trkpt lat="44.70779" lon="-0.16302">
        <ele>63.541797</ele>
        <time>2022-07-11T13:23:33.892Z</time>
      </trkpt>
      <trkpt lat="44.70567" lon="-0.16155">
        <ele>64.307736</ele>
        <time>2022-07-11T13:24:18.729Z</time>
      </trkpt>
      <trkpt lat="44.70532" lon="-0.16126">
        <ele>64.310719</ele>
        <time>2022-07-11T13:24:25.949Z</time>
      </trkpt>
      <trkpt lat="44.70472" lon="-0.16068">
        <ele>64.31611</ele>
        <time>2022-07-11T13:24:38.770Z</time>
      </trkpt>
      <trkpt lat="44.70368" lon="-0.15946">
        <ele>64.247272</ele>
        <time>2022-07-11T13:25:02.424Z</time>
      </trkpt>
      <trkpt lat="44.70145" lon="-0.1569">
        <ele>64.137265</ele>
        <time>2022-07-11T13:25:53.420Z</time>
      </trkpt>
      <trkpt lat="44.70068" lon="-0.15583">
        <ele>64.350645</ele>
        <time>2022-07-11T13:26:12.625Z</time>
      </trkpt>
      <trkpt lat="44.70025" lon="-0.15533">
        <ele>64.460579</ele>
        <time>2022-07-11T13:26:23.393Z</time>
      </trkpt>
      <trkpt lat="44.69997" lon="-0.1551">
        <ele>64.858029</ele>
        <time>2022-07-11T13:26:30.144Z</time>
      </trkpt>
      <trkpt lat="44.69785" lon="-0.15259">
        <ele>68.597893</ele>
        <time>2022-07-11T13:27:36.317Z</time>
      </trkpt>
      <trkpt lat="44.69766" lon="-0.15236">
        <ele>68.946835</ele>
        <time>2022-07-11T13:27:41.971Z</time>
      </trkpt>
      <trkpt lat="44.69761" lon="-0.15224">
        <ele>69.101864</ele>
        <time>2022-07-11T13:27:44.551Z</time>
      </trkpt>
      <trkpt lat="44.69754" lon="-0.15223">
        <ele>69.201192</ele>
        <time>2022-07-11T13:27:46.107Z</time>
      </trkpt>
      <trkpt lat="44.69747" lon="-0.15222">
        <ele>69.297591</ele>
        <time>2022-07-11T13:27:47.569Z</time>
      </trkpt>
      <trkpt lat="44.6974" lon="-0.15221">
        <ele>69.377447</ele>
        <time>2022-07-11T13:27:49.228Z</time>
      </trkpt>
      <trkpt lat="44.69736" lon="-0.15199">
        <ele>69.520837</ele>
        <time>2022-07-11T13:27:52.982Z</time>
      </trkpt>
      <trkpt lat="44.69538" lon="-0.14968">
        <ele>71.258319</ele>
        <time>2022-07-11T13:28:46.663Z</time>
      </trkpt>
      <trkpt lat="44.69317" lon="-0.14709">
        <ele>71.055287</ele>
        <time>2022-07-11T13:29:36.624Z</time>
      </trkpt>
      <trkpt lat="44.69287" lon="-0.14666">
        <ele>70.942012</ele>
        <time>2022-07-11T13:29:43.702Z</time>
      </trkpt>
      <trkpt lat="44.69247" lon="-0.14591">
        <ele>70.764236</ele>
        <time>2022-07-11T13:29:54.929Z</time>
      </trkpt>
      <trkpt lat="44.69221" lon="-0.14514">
        <ele>70.770452</ele>
        <time>2022-07-11T13:30:05.516Z</time>
      </trkpt>
      <trkpt lat="44.69204" lon="-0.14428">
        <ele>71.314408</ele>
        <time>2022-07-11T13:30:17.797Z</time>
      </trkpt>
      <trkpt lat="44.69165" lon="-0.13988">
        <ele>74.991099</ele>
        <time>2022-07-11T13:31:31.368Z</time>
      </trkpt>
      <trkpt lat="44.69144" lon="-0.13735">
        <ele>77.014777</ele>
        <time>2022-07-11T13:32:10.886Z</time>
      </trkpt>
      <trkpt lat="44.69129" lon="-0.13644">
        <ele>77.734611</ele>
        <time>2022-07-11T13:32:25.668Z</time>
      </trkpt>
      <trkpt lat="44.69106" lon="-0.13564">
        <ele>78.39805</ele>
        <time>2022-07-11T13:32:39.381Z</time>
      </trkpt>
      <trkpt lat="44.69049" lon="-0.13435">
        <ele>79.380295</ele>
        <time>2022-07-11T13:33:03.174Z</time>
      </trkpt>
      <trkpt lat="44.69027" lon="-0.134">
        <ele>79.673252</ele>
        <time>2022-07-11T13:33:10.137Z</time>
      </trkpt>
      <trkpt lat="44.68835" lon="-0.13174">
        <ele>81.45764</ele>
        <time>2022-07-11T13:34:00.764Z</time>
      </trkpt>
      <trkpt lat="44.68738" lon="-0.13018">
        <ele>82.603495</ele>
        <time>2022-07-11T13:34:32.571Z</time>
      </trkpt>
      <trkpt lat="44.68668" lon="-0.12858">
        <ele>82.923077</ele>
        <time>2022-07-11T13:34:59.067Z</time>
      </trkpt>
      <trkpt lat="44.6854" lon="-0.12444">
        <ele>81.66396</ele>
        <time>2022-07-11T13:35:52.417Z</time>
      </trkpt>
      <trkpt lat="44.68497" lon="-0.12285">
        <ele>81.181355</ele>
        <time>2022-07-11T13:36:12.601Z</time>
      </trkpt>
      <trkpt lat="44.68474" lon="-0.12119">
        <ele>81.225709</ele>
        <time>2022-07-11T13:36:34.307Z</time>
      </trkpt>
      <trkpt lat="44.6847" lon="-0.11996">
        <ele>81.270096</ele>
        <time>2022-07-11T13:36:51.144Z</time>
      </trkpt>
      <trkpt lat="44.68477" lon="-0.11336">
        <ele>81.774352</ele>
        <time>2022-07-11T13:38:15.265Z</time>
      </trkpt>
      <trkpt lat="44.68472" lon="-0.11323">
        <ele>81.795526</ele>
        <time>2022-07-11T13:38:17.353Z</time>
      </trkpt>
      <trkpt lat="44.68467" lon="-0.11314">
        <ele>81.811624</ele>
        <time>2022-07-11T13:38:18.971Z</time>
      </trkpt>
      <trkpt lat="44.68474" lon="-0.11284">
        <ele>81.990984</ele>
        <time>2022-07-11T13:38:23.869Z</time>
      </trkpt>
      <trkpt lat="44.68478" lon="-0.11265">
        <ele>82.123964</ele>
        <time>2022-07-11T13:38:26.789Z</time>
      </trkpt>
      <trkpt lat="44.68483" lon="-0.10765">
        <ele>84.382478</ele>
        <time>2022-07-11T13:39:45.064Z</time>
      </trkpt>
      <trkpt lat="44.68482" lon="-0.10742">
        <ele>84.010791</ele>
        <time>2022-07-11T13:39:47.459Z</time>
      </trkpt>
      <trkpt lat="44.68485" lon="-0.10601">
        <ele>81.749884</ele>
        <time>2022-07-11T13:40:01.344Z</time>
      </trkpt>
      <trkpt lat="44.68493" lon="-0.10527">
        <ele>80.616375</ele>
        <time>2022-07-11T13:40:08.296Z</time>
      </trkpt>
      <trkpt lat="44.68515" lon="-0.10445">
        <ele>79.404982</ele>
        <time>2022-07-11T13:40:16.920Z</time>
      </trkpt>
      <trkpt lat="44.68542" lon="-0.10387">
        <ele>78.454922</ele>
        <time>2022-07-11T13:40:24.264Z</time>
      </trkpt>
      <trkpt lat="44.68582" lon="-0.10326">
        <ele>77.496185</ele>
        <time>2022-07-11T13:40:34.437Z</time>
      </trkpt>
      <trkpt lat="44.68619" lon="-0.10291">
        <ele>77.598881</ele>
        <time>2022-07-11T13:40:42.628Z</time>
      </trkpt>
      <trkpt lat="44.68644" lon="-0.10272">
        <ele>77.666412</ele>
        <time>2022-07-11T13:40:48.623Z</time>
      </trkpt>
      <trkpt lat="44.68786" lon="-0.10192">
        <ele>77.642847</ele>
        <time>2022-07-11T13:41:17.884Z</time>
      </trkpt>
      <trkpt lat="44.6883" lon="-0.10157">
        <ele>77.409858</ele>
        <time>2022-07-11T13:41:26.475Z</time>
      </trkpt>
      <trkpt lat="44.68874" lon="-0.10094">
        <ele>77.122409</ele>
        <time>2022-07-11T13:41:36.638Z</time>
      </trkpt>
      <trkpt lat="44.68906" lon="-0.10027">
        <ele>76.119621</ele>
        <time>2022-07-11T13:41:45.289Z</time>
      </trkpt>
      <trkpt lat="44.68923" lon="-0.0997">
        <ele>75.196911</ele>
        <time>2022-07-11T13:41:51.926Z</time>
      </trkpt>
      <trkpt lat="44.69045" lon="-0.09374">
        <ele>65.666224</ele>
        <time>2022-07-11T13:42:55.378Z</time>
      </trkpt>
      <trkpt lat="44.69051" lon="-0.09303">
        <ele>64.39499</ele>
        <time>2022-07-11T13:43:02.756Z</time>
      </trkpt>
      <trkpt lat="44.69047" lon="-0.08945">
        <ele>58.152201</ele>
        <time>2022-07-11T13:43:38.623Z</time>
      </trkpt>
      <trkpt lat="44.69047" lon="-0.08911">
        <ele>57.569951</ele>
        <time>2022-07-11T13:43:42.114Z</time>
      </trkpt>
      <trkpt lat="44.69047" lon="-0.08883">
        <ele>57.099475</ele>
        <time>2022-07-11T13:43:44.983Z</time>
      </trkpt>
      <trkpt lat="44.69042" lon="-0.08856">
        <ele>56.62156</ele>
        <time>2022-07-11T13:43:47.950Z</time>
      </trkpt>
      <trkpt lat="44.69026" lon="-0.08774">
        <ele>55.79617</ele>
        <time>2022-07-11T13:43:57.490Z</time>
      </trkpt>
      <trkpt lat="44.69005" lon="-0.08729">
        <ele>55.279536</ele>
        <time>2022-07-11T13:44:03.619Z</time>
      </trkpt>
      <trkpt lat="44.68942" lon="-0.0859">
        <ele>53.802122</ele>
        <time>2022-07-11T13:44:23.176Z</time>
      </trkpt>
      <trkpt lat="44.68819" lon="-0.08428">
        <ele>52.148531</ele>
        <time>2022-07-11T13:44:51.161Z</time>
      </trkpt>
      <trkpt lat="44.68744" lon="-0.08341">
        <ele>51.413125</ele>
        <time>2022-07-11T13:45:07.041Z</time>
      </trkpt>
      <trkpt lat="44.68676" lon="-0.08284">
        <ele>50.938162</ele>
        <time>2022-07-11T13:45:21.649Z</time>
      </trkpt>
      <trkpt lat="44.68638" lon="-0.08235">
        <ele>50.851752</ele>
        <time>2022-07-11T13:45:31.019Z</time>
      </trkpt>
      <trkpt lat="44.68672" lon="-0.08177">
        <ele>50.760208</ele>
        <time>2022-07-11T13:45:44.323Z</time>
      </trkpt>
      <trkpt lat="44.68674" lon="-0.08161">
        <ele>50.740967</ele>
        <time>2022-07-11T13:45:46.803Z</time>
      </trkpt>
      <trkpt lat="44.68595" lon="-0.08043">
        <ele>50.222866</ele>
        <time>2022-07-11T13:46:12.236Z</time>
      </trkpt>
      <trkpt lat="44.68597" lon="-0.08035">
        <ele>50.189067</ele>
        <time>2022-07-11T13:46:13.388Z</time>
      </trkpt>
      <trkpt lat="44.68537" lon="-0.07987">
        <ele>49.769695</ele>
        <time>2022-07-11T13:46:24.275Z</time>
      </trkpt>
      <trkpt lat="44.68501" lon="-0.07945">
        <ele>49.968757</ele>
        <time>2022-07-11T13:46:32.366Z</time>
      </trkpt>
      <trkpt lat="44.68468" lon="-0.07895">
        <ele>51.170253</ele>
        <time>2022-07-11T13:46:42.786Z</time>
      </trkpt>
      <trkpt lat="44.68428" lon="-0.0781">
        <ele>52.961174</ele>
        <time>2022-07-11T13:47:04.364Z</time>
      </trkpt>
      <trkpt lat="44.68418" lon="-0.07783">
        <ele>53.489884</ele>
        <time>2022-07-11T13:47:11.949Z</time>
      </trkpt>
      <trkpt lat="44.68393" lon="-0.07689">
        <ele>56.023228</ele>
        <time>2022-07-11T13:47:39.043Z</time>
      </trkpt>
      <trkpt lat="44.68388" lon="-0.07668">
        <ele>56.645374</ele>
        <time>2022-07-11T13:47:44.876Z</time>
      </trkpt>
      <trkpt lat="44.68377" lon="-0.07625">
        <ele>57.943199</ele>
        <time>2022-07-11T13:47:56.788Z</time>
      </trkpt>
      <trkpt lat="44.6835" lon="-0.07534">
        <ele>60.739214</ele>
        <time>2022-07-11T13:48:19.483Z</time>
      </trkpt>
      <trkpt lat="44.68323" lon="-0.07488">
        <ele>61.732768</ele>
        <time>2022-07-11T13:48:30.907Z</time>
      </trkpt>
      <trkpt lat="44.6831" lon="-0.07479">
        <ele>61.974984</ele>
        <time>2022-07-11T13:48:34.802Z</time>
      </trkpt>
      <trkpt lat="44.68321" lon="-0.0745">
        <ele>62.366645</ele>
        <time>2022-07-11T13:48:40.159Z</time>
      </trkpt>
      <trkpt lat="44.6832" lon="-0.07441">
        <ele>62.479552</ele>
        <time>2022-07-11T13:48:41.820Z</time>
      </trkpt>
      <trkpt lat="44.68303" lon="-0.07375">
        <ele>63.328611</ele>
        <time>2022-07-11T13:48:53.349Z</time>
      </trkpt>
      <trkpt lat="44.68292" lon="-0.07306">
        <ele>64.191518</ele>
        <time>2022-07-11T13:49:04.766Z</time>
      </trkpt>
      <trkpt lat="44.68277" lon="-0.07138">
        <ele>65.557839</ele>
        <time>2022-07-11T13:49:32.169Z</time>
      </trkpt>
      <trkpt lat="44.68274" lon="-0.07081">
        <ele>66.019012</ele>
        <time>2022-07-11T13:49:41.205Z</time>
      </trkpt>
      <trkpt lat="44.68271" lon="-0.07043">
        <ele>66.305847</ele>
        <time>2022-07-11T13:49:46.891Z</time>
      </trkpt>
      <trkpt lat="44.6825" lon="-0.06775">
        <ele>67.653259</ele>
        <time>2022-07-11T13:50:25.580Z</time>
      </trkpt>
      <trkpt lat="44.68253" lon="-0.06706">
        <ele>68.131928</ele>
        <time>2022-07-11T13:50:36.529Z</time>
      </trkpt>
      <trkpt lat="44.68257" lon="-0.06585">
        <ele>68.957164</ele>
        <time>2022-07-11T13:50:55.394Z</time>
      </trkpt>
      <trkpt lat="44.6824" lon="-0.06394">
        <ele>70.52171</ele>
        <time>2022-07-11T13:51:24.843Z</time>
      </trkpt>
      <trkpt lat="44.6827" lon="-0.06051">
        <ele>74.852719</ele>
        <time>2022-07-11T13:52:24.459Z</time>
      </trkpt>
      <trkpt lat="44.68281" lon="-0.06008">
        <ele>76.058664</ele>
        <time>2022-07-11T13:52:35.325Z</time>
      </trkpt>
      <trkpt lat="44.68369" lon="-0.05776">
        <ele>83.617939</ele>
        <time>2022-07-11T13:53:42.499Z</time>
      </trkpt>
      <trkpt lat="44.68387" lon="-0.05706">
        <ele>85.477255</ele>
        <time>2022-07-11T13:54:00.280Z</time>
      </trkpt>
      <trkpt lat="44.684" lon="-0.05576">
        <ele>88.791925</ele>
        <time>2022-07-11T13:54:29.479Z</time>
      </trkpt>
      <trkpt lat="44.68403" lon="-0.05438">
        <ele>89.926114</ele>
        <time>2022-07-11T13:54:52.855Z</time>
      </trkpt>
      <trkpt lat="44.68403" lon="-0.05391">
        <ele>90.307666</ele>
        <time>2022-07-11T13:55:00.102Z</time>
      </trkpt>
      <trkpt lat="44.68413" lon="-0.05328">
        <ele>90.837481</ele>
        <time>2022-07-11T13:55:09.334Z</time>
      </trkpt>
      <trkpt lat="44.68537" lon="-0.04846">
        <ele>87.29039</ele>
        <time>2022-07-11T13:56:06.374Z</time>
      </trkpt>
      <trkpt lat="44.68554" lon="-0.04747">
        <ele>87.533551</ele>
        <time>2022-07-11T13:56:19.277Z</time>
      </trkpt>
      <trkpt lat="44.68567" lon="-0.04499">
        <ele>88.183281</ele>
        <time>2022-07-11T13:56:56.832Z</time>
      </trkpt>
      <trkpt lat="44.6857" lon="-0.04402">
        <ele>88.462481</ele>
        <time>2022-07-11T13:57:10.228Z</time>
      </trkpt>
      <trkpt lat="44.6858" lon="-0.0422">
        <ele>88.121147</ele>
        <time>2022-07-11T13:57:32.536Z</time>
      </trkpt>
      <trkpt lat="44.68584" lon="-0.04188">
        <ele>87.988412</ele>
        <time>2022-07-11T13:57:36.309Z</time>
      </trkpt>
      <trkpt lat="44.68607" lon="-0.04104">
        <ele>87.632414</ele>
        <time>2022-07-11T13:57:46.436Z</time>
      </trkpt>
      <trkpt lat="44.68661" lon="-0.03977">
        <ele>87.366543</ele>
        <time>2022-07-11T13:58:03.708Z</time>
      </trkpt>
      <trkpt lat="44.68685" lon="-0.03893">
        <ele>87.210267</ele>
        <time>2022-07-11T13:58:15.238Z</time>
      </trkpt>
      <trkpt lat="44.68761" lon="-0.03285">
        <ele>91.092544</ele>
        <time>2022-07-11T13:59:51.349Z</time>
      </trkpt>
      <trkpt lat="44.68777" lon="-0.03199">
        <ele>91.454505</ele>
        <time>2022-07-11T14:00:03.914Z</time>
      </trkpt>
      <trkpt lat="44.68788" lon="-0.03153">
        <ele>91.652645</ele>
        <time>2022-07-11T14:00:10.521Z</time>
      </trkpt>
      <trkpt lat="44.68813" lon="-0.03034">
        <ele>91.594907</ele>
        <time>2022-07-11T14:00:26.154Z</time>
      </trkpt>
      <trkpt lat="44.68814" lon="-0.02986">
        <ele>91.5242</ele>
        <time>2022-07-11T14:00:31.977Z</time>
      </trkpt>
      <trkpt lat="44.68805" lon="-0.02903">
        <ele>91.399169</ele>
        <time>2022-07-11T14:00:42.070Z</time>
      </trkpt>
      <trkpt lat="44.68782" lon="-0.02712">
        <ele>90.929564</ele>
        <time>2022-07-11T14:01:05.359Z</time>
      </trkpt>
      <trkpt lat="44.6877" lon="-0.02653">
        <ele>90.774901</ele>
        <time>2022-07-11T14:01:12.790Z</time>
      </trkpt>
      <trkpt lat="44.68753" lon="-0.02617">
        <ele>90.583876</ele>
        <time>2022-07-11T14:01:18.172Z</time>
      </trkpt>
      <trkpt lat="44.6873" lon="-0.02585">
        <ele>90.332082</ele>
        <time>2022-07-11T14:01:23.676Z</time>
      </trkpt>
      <trkpt lat="44.68658" lon="-0.02451">
        <ele>89.381238</ele>
        <time>2022-07-11T14:01:43.093Z</time>
      </trkpt>
      <trkpt lat="44.68637" lon="-0.02387">
        <ele>88.275652</ele>
        <time>2022-07-11T14:01:50.648Z</time>
      </trkpt>
      <trkpt lat="44.68599" lon="-0.02263">
        <ele>85.828808</ele>
        <time>2022-07-11T14:02:04.427Z</time>
      </trkpt>
      <trkpt lat="44.68515" lon="-0.02123">
        <ele>80.742343</ele>
        <time>2022-07-11T14:02:21.524Z</time>
      </trkpt>
      <trkpt lat="44.6849" lon="-0.02085">
        <ele>79.041288</ele>
        <time>2022-07-11T14:02:26.221Z</time>
      </trkpt>
      <trkpt lat="44.68418" lon="-0.01965">
        <ele>73.841304</ele>
        <time>2022-07-11T14:02:40.278Z</time>
      </trkpt>
      <trkpt lat="44.68396" lon="-0.01921">
        <ele>72.028715</ele>
        <time>2022-07-11T14:02:45.029Z</time>
      </trkpt>
      <trkpt lat="44.68371" lon="-0.01846">
        <ele>69.236662</ele>
        <time>2022-07-11T14:02:52.547Z</time>
      </trkpt>
      <trkpt lat="44.68343" lon="-0.01741">
        <ele>66.660797</ele>
        <time>2022-07-11T14:03:03.297Z</time>
      </trkpt>
      <trkpt lat="44.68304" lon="-0.01596">
        <ele>63.98037</ele>
        <time>2022-07-11T14:03:19.456Z</time>
      </trkpt>
      <trkpt lat="44.6827" lon="-0.01525">
        <ele>62.597568</ele>
        <time>2022-07-11T14:03:29.097Z</time>
      </trkpt>
      <trkpt lat="44.68178" lon="-0.014">
        <ele>59.774756</ele>
        <time>2022-07-11T14:03:47.498Z</time>
      </trkpt>
      <trkpt lat="44.6816" lon="-0.01374">
        <ele>58.884144</ele>
        <time>2022-07-11T14:03:51.031Z</time>
      </trkpt>
      <trkpt lat="44.68126" lon="-0.01293">
        <ele>56.12277</ele>
        <time>2022-07-11T14:04:00.020Z</time>
      </trkpt>
      <trkpt lat="44.6811" lon="-0.01265">
        <ele>55.085134</ele>
        <time>2022-07-11T14:04:03.281Z</time>
      </trkpt>
      <trkpt lat="44.68096" lon="-0.01244">
        <ele>54.232903</ele>
        <time>2022-07-11T14:04:05.928Z</time>
      </trkpt>
      <trkpt lat="44.6803" lon="-0.01169">
        <ele>51.56919</ele>
        <time>2022-07-11T14:04:16.518Z</time>
      </trkpt>
      <trkpt lat="44.68014" lon="-0.01149">
        <ele>51.186712</ele>
        <time>2022-07-11T14:04:19.337Z</time>
      </trkpt>
      <trkpt lat="44.68009" lon="-0.01144">
        <ele>51.075874</ele>
        <time>2022-07-11T14:04:20.170Z</time>
      </trkpt>
      <trkpt lat="44.67925" lon="-0.01043">
        <ele>49.104649</ele>
        <time>2022-07-11T14:04:37.306Z</time>
      </trkpt>
      <trkpt lat="44.6776" lon="-0.00853">
        <ele>56.497285</ele>
        <time>2022-07-11T14:05:49.154Z</time>
      </trkpt>
      <trkpt lat="44.67754" lon="-0.00849">
        <ele>56.80759</ele>
        <time>2022-07-11T14:05:51.723Z</time>
      </trkpt>
      <trkpt lat="44.67762" lon="-0.00839">
        <ele>57.280636</ele>
        <time>2022-07-11T14:05:56.652Z</time>
      </trkpt>
      <trkpt lat="44.67786" lon="-0.00845">
        <ele>58.440105</ele>
        <time>2022-07-11T14:06:07.524Z</time>
      </trkpt>
      <trkpt lat="44.67793" lon="-0.00831">
        <ele>59.016624</ele>
        <time>2022-07-11T14:06:13.193Z</time>
      </trkpt>
      <trkpt lat="44.67814" lon="-0.0067">
        <ele>64.410697</ele>
        <time>2022-07-11T14:07:02.220Z</time>
      </trkpt>
      <trkpt lat="44.67803" lon="-0.00662">
        <ele>64.929531</ele>
        <time>2022-07-11T14:07:07.007Z</time>
      </trkpt>
      <trkpt lat="44.67771" lon="-0.00607">
        <ele>67.087106</ele>
        <time>2022-07-11T14:07:28.255Z</time>
      </trkpt>
      <trkpt lat="44.67764" lon="-0.00599">
        <ele>67.460325</ele>
        <time>2022-07-11T14:07:31.632Z</time>
      </trkpt>
      <trkpt lat="44.67757" lon="-0.00589">
        <ele>67.884061</ele>
        <time>2022-07-11T14:07:35.394Z</time>
      </trkpt>
      <trkpt lat="44.67759" lon="-0.00571">
        <ele>68.438628</ele>
        <time>2022-07-11T14:07:40.464Z</time>
      </trkpt>
      <trkpt lat="44.67736" lon="-0.00463">
        <ele>71.760768</ele>
        <time>2022-07-11T14:08:06.966Z</time>
      </trkpt>
      <trkpt lat="44.67721" lon="-0.00346">
        <ele>74.830801</ele>
        <time>2022-07-11T14:08:35.213Z</time>
      </trkpt>
      <trkpt lat="44.67726" lon="-0.00325">
        <ele>75.394604</ele>
        <time>2022-07-11T14:08:40.119Z</time>
      </trkpt>
      <trkpt lat="44.67735" lon="-0.0031">
        <ele>75.891559</ele>
        <time>2022-07-11T14:08:44.395Z</time>
      </trkpt>
      <trkpt lat="44.67758" lon="-0.00291">
        <ele>76.848031</ele>
        <time>2022-07-11T14:08:52.607Z</time>
      </trkpt>
      <trkpt lat="44.67771" lon="-0.0027">
        <ele>77.570805</ele>
        <time>2022-07-11T14:08:58.924Z</time>
      </trkpt>
      <trkpt lat="44.67817" lon="-0.00155">
        <ele>80.2539</ele>
        <time>2022-07-11T14:09:28.022Z</time>
      </trkpt>
      <trkpt lat="44.67823" lon="-0.00126">
        <ele>80.859605</ele>
        <time>2022-07-11T14:09:34.357Z</time>
      </trkpt>
      <trkpt lat="44.67818" lon="-0.00052">
        <ele>82.325284</ele>
        <time>2022-07-11T14:09:48.663Z</time>
      </trkpt>
      <trkpt lat="44.67806" lon="0.00072">
        <ele>84.140579</ele>
        <time>2022-07-11T14:10:11.128Z</time>
      </trkpt>
      <trkpt lat="44.67807" lon="0.00137">
        <ele>84.968843</ele>
        <time>2022-07-11T14:10:22.431Z</time>
      </trkpt>
      <trkpt lat="44.67867" lon="0.00501">
        <ele>89.599971</ele>
        <time>2022-07-11T14:11:28.297Z</time>
      </trkpt>
      <trkpt lat="44.67893" lon="0.00702">
        <ele>91.707379</ele>
        <time>2022-07-11T14:12:03.265Z</time>
      </trkpt>
      <trkpt lat="44.67903" lon="0.0075">
        <ele>91.939226</ele>
        <time>2022-07-11T14:12:10.908Z</time>
      </trkpt>
      <trkpt lat="44.6792" lon="0.00792">
        <ele>92.002035</ele>
        <time>2022-07-11T14:12:18.011Z</time>
      </trkpt>
      <trkpt lat="44.68216" lon="0.01412">
        <ele>92.606325</ele>
        <time>2022-07-11T14:13:52.911Z</time>
      </trkpt>
      <trkpt lat="44.68379" lon="0.0174">
        <ele>92.779221</ele>
        <time>2022-07-11T14:14:43.794Z</time>
      </trkpt>
      <trkpt lat="44.68608" lon="0.02125">
        <ele>93.74707</ele>
        <time>2022-07-11T14:15:51.465Z</time>
      </trkpt>
      <trkpt lat="44.68628" lon="0.0216">
        <ele>93.844264</ele>
        <time>2022-07-11T14:15:57.615Z</time>
      </trkpt>
      <trkpt lat="44.68679" lon="0.02247">
        <ele>93.985349</ele>
        <time>2022-07-11T14:16:12.849Z</time>
      </trkpt>
      <trkpt lat="44.68775" lon="0.02412">
        <ele>94.122685</ele>
        <time>2022-07-11T14:16:40.221Z</time>
      </trkpt>
      <trkpt lat="44.68806" lon="0.0248">
        <ele>94.087428</ele>
        <time>2022-07-11T14:16:50.206Z</time>
      </trkpt>
      <trkpt lat="44.68936" lon="0.02966">
        <ele>94.320006</ele>
        <time>2022-07-11T14:17:55.207Z</time>
      </trkpt>
      <trkpt lat="44.68974" lon="0.03111">
        <ele>95.485642</ele>
        <time>2022-07-11T14:18:19.463Z</time>
      </trkpt>
      <trkpt lat="44.69036" lon="0.03337">
        <ele>98.542157</ele>
        <time>2022-07-11T14:19:05.462Z</time>
      </trkpt>
      <trkpt lat="44.6905" lon="0.03374">
        <ele>98.972546</ele>
        <time>2022-07-11T14:19:13.686Z</time>
      </trkpt>
      <trkpt lat="44.69328" lon="0.03856">
        <ele>104.208933</ele>
        <time>2022-07-11T14:20:53.758Z</time>
      </trkpt>
      <trkpt lat="44.69443" lon="0.04083">
        <ele>102.502818</ele>
        <time>2022-07-11T14:21:24.580Z</time>
      </trkpt>
      <trkpt lat="44.69458" lon="0.04131">
        <ele>102.024263</ele>
        <time>2022-07-11T14:21:30.385Z</time>
      </trkpt>
      <trkpt lat="44.69468" lon="0.04215">
        <ele>101.230774</ele>
        <time>2022-07-11T14:21:39.884Z</time>
      </trkpt>
      <trkpt lat="44.69505" lon="0.04763">
        <ele>94.652846</ele>
        <time>2022-07-11T14:22:39.535Z</time>
      </trkpt>
      <trkpt lat="44.69519" lon="0.04963">
        <ele>90.852075</ele>
        <time>2022-07-11T14:22:58.728Z</time>
      </trkpt>
      <trkpt lat="44.69518" lon="0.05021">
        <ele>89.629131</ele>
        <time>2022-07-11T14:23:04.266Z</time>
      </trkpt>
      <trkpt lat="44.69511" lon="0.05064">
        <ele>88.712517</ele>
        <time>2022-07-11T14:23:08.510Z</time>
      </trkpt>
      <trkpt lat="44.69435" lon="0.05347">
        <ele>86.989679</ele>
        <time>2022-07-11T14:23:43.469Z</time>
      </trkpt>
      <trkpt lat="44.69431" lon="0.05386">
        <ele>87.593282</ele>
        <time>2022-07-11T14:23:49.750Z</time>
      </trkpt>
      <trkpt lat="44.69431" lon="0.05427">
        <ele>88.218718</ele>
        <time>2022-07-11T14:23:57.325Z</time>
      </trkpt>
      <trkpt lat="44.69443" lon="0.05539">
        <ele>89.939356</ele>
        <time>2022-07-11T14:24:19.588Z</time>
      </trkpt>
      <trkpt lat="44.6945" lon="0.05548">
        <ele>90.134572</ele>
        <time>2022-07-11T14:24:23.185Z</time>
      </trkpt>
      <trkpt lat="44.69387" lon="0.05752">
        <ele>95.537716</ele>
        <time>2022-07-11T14:25:15.779Z</time>
      </trkpt>
      <trkpt lat="44.69364" lon="0.05789">
        <ele>96.783955</ele>
        <time>2022-07-11T14:25:26.273Z</time>
      </trkpt>
      <trkpt lat="44.69353" lon="0.0582">
        <ele>97.527255</ele>
        <time>2022-07-11T14:25:33.931Z</time>
      </trkpt>
      <trkpt lat="44.69356" lon="0.05846">
        <ele>98.008234</ele>
        <time>2022-07-11T14:25:39.295Z</time>
      </trkpt>
      <trkpt lat="44.6936" lon="0.05866">
        <ele>98.413485</ele>
        <time>2022-07-11T14:25:43.951Z</time>
      </trkpt>
      <trkpt lat="44.6938" lon="0.05974">
        <ele>100.533233</ele>
        <time>2022-07-11T14:26:07.867Z</time>
      </trkpt>
      <trkpt lat="44.69402" lon="0.06073">
        <ele>101.587285</ele>
        <time>2022-07-11T14:26:27.131Z</time>
      </trkpt>
      <trkpt lat="44.69408" lon="0.06097">
        <ele>101.382097</ele>
        <time>2022-07-11T14:26:30.652Z</time>
      </trkpt>
      <trkpt lat="44.69401" lon="0.06108">
        <ele>101.264914</ele>
        <time>2022-07-11T14:26:32.772Z</time>
      </trkpt>
      <trkpt lat="44.69375" lon="0.06224">
        <ele>100.28817</ele>
        <time>2022-07-11T14:26:46.325Z</time>
      </trkpt>
      <trkpt lat="44.69371" lon="0.06261">
        <ele>99.977691</ele>
        <time>2022-07-11T14:26:50.196Z</time>
      </trkpt>
      <trkpt lat="44.69376" lon="0.06673">
        <ele>84.786411</ele>
        <time>2022-07-11T14:27:26.660Z</time>
      </trkpt>
      <trkpt lat="44.69355" lon="0.06775">
        <ele>80.531437</ele>
        <time>2022-07-11T14:27:36.013Z</time>
      </trkpt>
      <trkpt lat="44.69351" lon="0.06815">
        <ele>79.02434</ele>
        <time>2022-07-11T14:27:39.588Z</time>
      </trkpt>
      <trkpt lat="44.69356" lon="0.06877">
        <ele>76.734822</ele>
        <time>2022-07-11T14:27:45.267Z</time>
      </trkpt>
      <trkpt lat="44.69361" lon="0.06936">
        <ele>74.567544</ele>
        <time>2022-07-11T14:27:50.661Z</time>
      </trkpt>
      <trkpt lat="44.69364" lon="0.06967">
        <ele>73.444977</ele>
        <time>2022-07-11T14:27:53.389Z</time>
      </trkpt>
      <trkpt lat="44.69346" lon="0.07067">
        <ele>69.827589</ele>
        <time>2022-07-11T14:28:02.649Z</time>
      </trkpt>
      <trkpt lat="44.69345" lon="0.071">
        <ele>68.789129</ele>
        <time>2022-07-11T14:28:05.645Z</time>
      </trkpt>
      <trkpt lat="44.69392" lon="0.07259">
        <ele>63.309461</ele>
        <time>2022-07-11T14:28:21.647Z</time>
      </trkpt>
      <trkpt lat="44.69401" lon="0.07308">
        <ele>61.904347</ele>
        <time>2022-07-11T14:28:26.254Z</time>
      </trkpt>
      <trkpt lat="44.69433" lon="0.07561">
        <ele>56.111383</ele>
        <time>2022-07-11T14:28:50.723Z</time>
      </trkpt>
      <trkpt lat="44.69433" lon="0.07608">
        <ele>55.945206</ele>
        <time>2022-07-11T14:28:55.790Z</time>
      </trkpt>
      <trkpt lat="44.69286" lon="0.07994">
        <ele>56.379823</ele>
        <time>2022-07-11T14:30:01.551Z</time>
      </trkpt>
      <trkpt lat="44.69189" lon="0.08179">
        <ele>54.543897</ele>
        <time>2022-07-11T14:30:26.953Z</time>
      </trkpt>
      <trkpt lat="44.69043" lon="0.08512">
        <ele>48.38496</ele>
        <time>2022-07-11T14:31:05.792Z</time>
      </trkpt>
      <trkpt lat="44.69291" lon="0.08807">
        <ele>47.524887</ele>
        <time>2022-07-11T14:32:04.209Z</time>
      </trkpt>
      <trkpt lat="44.6934" lon="0.08862">
        <ele>47.782953</ele>
        <time>2022-07-11T14:32:16.670Z</time>
      </trkpt>
      <trkpt lat="44.6921" lon="0.09159">
        <ele>49.867866</ele>
        <time>2022-07-11T14:33:07.962Z</time>
      </trkpt>
      <trkpt lat="44.69192" lon="0.09217">
        <ele>50.923217</ele>
        <time>2022-07-11T14:33:19.731Z</time>
      </trkpt>
      <trkpt lat="44.6918" lon="0.09411">
        <ele>54.321923</ele>
        <time>2022-07-11T14:33:59.697Z</time>
      </trkpt>
      <trkpt lat="44.69107" lon="0.09588">
        <ele>59.044123</ele>
        <time>2022-07-11T14:34:43.259Z</time>
      </trkpt>
      <trkpt lat="44.69103" lon="0.09615">
        <ele>59.710141</ele>
        <time>2022-07-11T14:34:49.654Z</time>
      </trkpt>
      <trkpt lat="44.69111" lon="0.09639">
        <ele>60.780382</ele>
        <time>2022-07-11T14:34:55.443Z</time>
      </trkpt>
      <trkpt lat="44.69191" lon="0.09803">
        <ele>68.881652</ele>
        <time>2022-07-11T14:35:53.234Z</time>
      </trkpt>
      <trkpt lat="44.69193" lon="0.09838">
        <ele>70.496625</ele>
        <time>2022-07-11T14:36:05.318Z</time>
      </trkpt>
      <trkpt lat="44.69184" lon="0.0987">
        <ele>72.459083</ele>
        <time>2022-07-11T14:36:18.136Z</time>
      </trkpt>
      <trkpt lat="44.69105" lon="0.10099">
        <ele>86.059155</ele>
        <time>2022-07-11T14:37:51.399Z</time>
      </trkpt>
      <trkpt lat="44.69098" lon="0.10129">
        <ele>87.195149</ele>
        <time>2022-07-11T14:38:01.784Z</time>
      </trkpt>
      <trkpt lat="44.69097" lon="0.10167">
        <ele>88.538348</ele>
        <time>2022-07-11T14:38:12.569Z</time>
      </trkpt>
      <trkpt lat="44.69103" lon="0.1021">
        <ele>90.079873</ele>
        <time>2022-07-11T14:38:24.030Z</time>
      </trkpt>
      <trkpt lat="44.69153" lon="0.10357">
        <ele>93.93182</ele>
        <time>2022-07-11T14:38:55.853Z</time>
      </trkpt>
      <trkpt lat="44.69167" lon="0.10424">
        <ele>94.483137</ele>
        <time>2022-07-11T14:39:05.504Z</time>
      </trkpt>
      <trkpt lat="44.69195" lon="0.10489">
        <ele>95.089895</ele>
        <time>2022-07-11T14:39:16.174Z</time>
      </trkpt>
      <trkpt lat="44.69235" lon="0.10536">
        <ele>95.683922</ele>
        <time>2022-07-11T14:39:26.691Z</time>
      </trkpt>
      <trkpt lat="44.69243" lon="0.10552">
        <ele>95.843408</ele>
        <time>2022-07-11T14:39:29.355Z</time>
      </trkpt>
      <trkpt lat="44.69485" lon="0.10552">
        <ele>97.767349</ele>
        <time>2022-07-11T14:40:25.857Z</time>
      </trkpt>
      <trkpt lat="44.69533" lon="0.10561">
        <ele>97.904902</ele>
        <time>2022-07-11T14:40:34.355Z</time>
      </trkpt>
      <trkpt lat="44.69554" lon="0.10564">
        <ele>97.962609</ele>
        <time>2022-07-11T14:40:37.610Z</time>
      </trkpt>
      <trkpt lat="44.69578" lon="0.10569">
        <ele>97.538557</ele>
        <time>2022-07-11T14:40:41.375Z</time>
      </trkpt>
      <trkpt lat="44.69534" lon="0.10865">
        <ele>91.104261</ele>
        <time>2022-07-11T14:41:10.269Z</time>
      </trkpt>
      <trkpt lat="44.69535" lon="0.10896">
        <ele>90.485372</ele>
        <time>2022-07-11T14:41:13.313Z</time>
      </trkpt>
      <trkpt lat="44.69543" lon="0.10926">
        <ele>89.858599</ele>
        <time>2022-07-11T14:41:16.449Z</time>
      </trkpt>
      <trkpt lat="44.69565" lon="0.10963">
        <ele>88.905579</ele>
        <time>2022-07-11T14:41:21.318Z</time>
      </trkpt>
      <trkpt lat="44.69573" lon="0.11023">
        <ele>87.701826</ele>
        <time>2022-07-11T14:41:27.687Z</time>
      </trkpt>
      <trkpt lat="44.69576" lon="0.11114">
        <ele>86.254165</ele>
        <time>2022-07-11T14:41:37.512Z</time>
      </trkpt>
      <trkpt lat="44.69562" lon="0.11182">
        <ele>85.145525</ele>
        <time>2022-07-11T14:41:45.051Z</time>
      </trkpt>
      <trkpt lat="44.69548" lon="0.1123">
        <ele>84.345683</ele>
        <time>2022-07-11T14:41:50.325Z</time>
      </trkpt>
      <trkpt lat="44.6953" lon="0.11253">
        <ele>83.82503</ele>
        <time>2022-07-11T14:41:53.676Z</time>
      </trkpt>
      <trkpt lat="44.69493" lon="0.11274">
        <ele>82.512888</ele>
        <time>2022-07-11T14:41:59.151Z</time>
      </trkpt>
      <trkpt lat="44.69456" lon="0.11304">
        <ele>80.945497</ele>
        <time>2022-07-11T14:42:04.811Z</time>
      </trkpt>
      <trkpt lat="44.69411" lon="0.1146">
        <ele>76.356916</ele>
        <time>2022-07-11T14:42:20.675Z</time>
      </trkpt>
      <trkpt lat="44.6939" lon="0.11512">
        <ele>74.241921</ele>
        <time>2022-07-11T14:42:26.153Z</time>
      </trkpt>
      <trkpt lat="44.69356" lon="0.11569">
        <ele>71.593916</ele>
        <time>2022-07-11T14:42:32.844Z</time>
      </trkpt>
      <trkpt lat="44.69293" lon="0.11647">
        <ele>67.380377</ele>
        <time>2022-07-11T14:42:43.295Z</time>
      </trkpt>
      <trkpt lat="44.69262" lon="0.11706">
        <ele>64.594661</ele>
        <time>2022-07-11T14:42:49.846Z</time>
      </trkpt>
      <trkpt lat="44.69245" lon="0.11786">
        <ele>61.445853</ele>
        <time>2022-07-11T14:42:57.206Z</time>
      </trkpt>
      <trkpt lat="44.69245" lon="0.11839">
        <ele>59.461168</ele>
        <time>2022-07-11T14:43:01.887Z</time>
      </trkpt>
      <trkpt lat="44.69282" lon="0.12001">
        <ele>55.711268</ele>
        <time>2022-07-11T14:43:18.184Z</time>
      </trkpt>
      <trkpt lat="44.6928" lon="0.12091">
        <ele>54.00804</ele>
        <time>2022-07-11T14:43:27.944Z</time>
      </trkpt>
      <trkpt lat="44.69269" lon="0.12131">
        <ele>53.452839</ele>
        <time>2022-07-11T14:43:32.705Z</time>
      </trkpt>
      <trkpt lat="44.69229" lon="0.12209">
        <ele>52.739961</ele>
        <time>2022-07-11T14:43:44.110Z</time>
      </trkpt>
      <trkpt lat="44.69051" lon="0.12453">
        <ele>49.70313</ele>
        <time>2022-07-11T14:44:22.919Z</time>
      </trkpt>
      <trkpt lat="44.69029" lon="0.12484">
        <ele>49.293324</ele>
        <time>2022-07-11T14:44:27.490Z</time>
      </trkpt>
      <trkpt lat="44.68998" lon="0.12559">
        <ele>48.553271</ele>
        <time>2022-07-11T14:44:36.672Z</time>
      </trkpt>
      <trkpt lat="44.68861" lon="0.12902">
        <ele>45.534354</ele>
        <time>2022-07-11T14:45:21.655Z</time>
      </trkpt>
      <trkpt lat="44.68756" lon="0.13166">
        <ele>42.70524</ele>
        <time>2022-07-11T14:45:54.361Z</time>
      </trkpt>
      <trkpt lat="44.68908" lon="0.13173">
        <ele>41.148469</ele>
        <time>2022-07-11T14:46:19.229Z</time>
      </trkpt>
      <trkpt lat="44.68824" lon="0.13361">
        <ele>38.041994</ele>
        <time>2022-07-11T14:46:43.411Z</time>
      </trkpt>
      <trkpt lat="44.68783" lon="0.13477">
        <ele>36.887162</ele>
        <time>2022-07-11T14:46:57.125Z</time>
      </trkpt>
      <trkpt lat="44.68776" lon="0.13519">
        <ele>36.620145</ele>
        <time>2022-07-11T14:47:01.915Z</time>
      </trkpt>
      <trkpt lat="44.68774" lon="0.13684">
        <ele>37.12423</ele>
        <time>2022-07-11T14:47:24.097Z</time>
      </trkpt>
      <trkpt lat="44.68775" lon="0.13694">
        <ele>37.407178</ele>
        <time>2022-07-11T14:47:25.860Z</time>
      </trkpt>
      <trkpt lat="44.68779" lon="0.13828">
        <ele>41.457336</ele>
        <time>2022-07-11T14:47:57.568Z</time>
      </trkpt>
      <trkpt lat="44.68742" lon="0.14311">
        <ele>68.376922</ele>
        <time>2022-07-11T14:50:58.993Z</time>
      </trkpt>
      <trkpt lat="44.68731" lon="0.14353">
        <ele>71.078304</ele>
        <time>2022-07-11T14:51:16.714Z</time>
      </trkpt>
      <trkpt lat="44.68712" lon="0.14384">
        <ele>73.475781</ele>
        <time>2022-07-11T14:51:32.197Z</time>
      </trkpt>
      <trkpt lat="44.68695" lon="0.14392">
        <ele>74.54678</ele>
        <time>2022-07-11T14:51:41.657Z</time>
      </trkpt>
      <trkpt lat="44.68535" lon="0.14401">
        <ele>83.693086</ele>
        <time>2022-07-11T14:52:48.720Z</time>
      </trkpt>
      <trkpt lat="44.68508" lon="0.14415">
        <ele>83.768972</ele>
        <time>2022-07-11T14:52:56.291Z</time>
      </trkpt>
      <trkpt lat="44.68486" lon="0.14458">
        <ele>83.601703</ele>
        <time>2022-07-11T14:53:04.213Z</time>
      </trkpt>
      <trkpt lat="44.68478" lon="0.14496">
        <ele>83.478032</ele>
        <time>2022-07-11T14:53:09.030Z</time>
      </trkpt>
      <trkpt lat="44.6845" lon="0.14698">
        <ele>81.805098</ele>
        <time>2022-07-11T14:53:30.649Z</time>
      </trkpt>
      <trkpt lat="44.68449" lon="0.14728">
        <ele>81.324618</ele>
        <time>2022-07-11T14:53:33.764Z</time>
      </trkpt>
      <trkpt lat="44.68454" lon="0.14753">
        <ele>80.921099</ele>
        <time>2022-07-11T14:53:36.459Z</time>
      </trkpt>
      <trkpt lat="44.68476" lon="0.14801">
        <ele>80.024735</ele>
        <time>2022-07-11T14:53:42.624Z</time>
      </trkpt>
      <trkpt lat="44.68495" lon="0.14899">
        <ele>78.801566</ele>
        <time>2022-07-11T14:53:54.212Z</time>
      </trkpt>
      <trkpt lat="44.685" lon="0.14999">
        <ele>78.096241</ele>
        <time>2022-07-11T14:54:06.205Z</time>
      </trkpt>
      <trkpt lat="44.68518" lon="0.15085">
        <ele>77.472827</ele>
        <time>2022-07-11T14:54:16.864Z</time>
      </trkpt>
      <trkpt lat="44.68523" lon="0.15215">
        <ele>76.618381</ele>
        <time>2022-07-11T14:54:33.021Z</time>
      </trkpt>
      <trkpt lat="44.68517" lon="0.15284">
        <ele>76.171947</ele>
        <time>2022-07-11T14:54:41.327Z</time>
      </trkpt>
      <trkpt lat="44.6852" lon="0.15302">
        <ele>76.053217</ele>
        <time>2022-07-11T14:54:43.509Z</time>
      </trkpt>
      <trkpt lat="44.68526" lon="0.15335">
        <ele>75.837518</ele>
        <time>2022-07-11T14:54:47.419Z</time>
      </trkpt>
      <trkpt lat="44.68526" lon="0.15356">
        <ele>75.699611</ele>
        <time>2022-07-11T14:54:49.917Z</time>
      </trkpt>
      <trkpt lat="44.68509" lon="0.15401">
        <ele>74.708705</ele>
        <time>2022-07-11T14:54:55.710Z</time>
      </trkpt>
      <trkpt lat="44.68465" lon="0.15498">
        <ele>72.485317</ele>
        <time>2022-07-11T14:55:08.068Z</time>
      </trkpt>
      <trkpt lat="44.68451" lon="0.15527">
        <ele>71.796098</ele>
        <time>2022-07-11T14:55:11.655Z</time>
      </trkpt>
      <trkpt lat="44.68447" lon="0.15536">
        <ele>71.589687</ele>
        <time>2022-07-11T14:55:12.696Z</time>
      </trkpt>
      <trkpt lat="44.68372" lon="0.15671">
        <ele>65.777462</ele>
        <time>2022-07-11T14:55:28.927Z</time>
      </trkpt>
      <trkpt lat="44.68332" lon="0.15783">
        <ele>60.916286</ele>
        <time>2022-07-11T14:55:40.471Z</time>
      </trkpt>
      <trkpt lat="44.68313" lon="0.15822">
        <ele>58.743098</ele>
        <time>2022-07-11T14:55:44.749Z</time>
      </trkpt>
      <trkpt lat="44.68272" lon="0.15901">
        <ele>54.228214</ele>
        <time>2022-07-11T14:55:53.493Z</time>
      </trkpt>
      <trkpt lat="44.68188" lon="0.16068">
        <ele>45.42942</ele>
        <time>2022-07-11T14:56:12.176Z</time>
      </trkpt>
      <trkpt lat="44.68164" lon="0.16104">
        <ele>43.464747</ele>
        <time>2022-07-11T14:56:16.693Z</time>
      </trkpt>
      <trkpt lat="44.68136" lon="0.16131">
        <ele>41.560567</ele>
        <time>2022-07-11T14:56:21.115Z</time>
      </trkpt>
      <trkpt lat="44.67956" lon="0.16286">
        <ele>33.034255</ele>
        <time>2022-07-11T14:56:50.271Z</time>
      </trkpt>
      <trkpt lat="44.67942" lon="0.16423">
        <ele>32.46207</ele>
        <time>2022-07-11T14:57:05.712Z</time>
      </trkpt>
      <trkpt lat="44.67938" lon="0.1647">
        <ele>32.375695</ele>
        <time>2022-07-11T14:57:12.017Z</time>
      </trkpt>
      <trkpt lat="44.67936" lon="0.16488">
        <ele>32.341476</ele>
        <time>2022-07-11T14:57:14.660Z</time>
      </trkpt>
      <trkpt lat="44.67918" lon="0.1667">
        <ele>33.895785</ele>
        <time>2022-07-11T14:57:47.770Z</time>
      </trkpt>
      <trkpt lat="44.67902" lon="0.16805">
        <ele>35.736141</ele>
        <time>2022-07-11T14:58:13.560Z</time>
      </trkpt>
      <trkpt lat="44.67877" lon="0.16894">
        <ele>36.477765</ele>
        <time>2022-07-11T14:58:30.218Z</time>
      </trkpt>
      <trkpt lat="44.6774" lon="0.17186">
        <ele>39.136636</ele>
        <time>2022-07-11T14:59:20.494Z</time>
      </trkpt>
      <trkpt lat="44.67724" lon="0.17218">
        <ele>39.42751</ele>
        <time>2022-07-11T14:59:26.994Z</time>
      </trkpt>
      <trkpt lat="44.67693" lon="0.17285">
        <ele>41.81353</ele>
        <time>2022-07-11T14:59:42.934Z</time>
      </trkpt>
      <trkpt lat="44.67673" lon="0.17316">
        <ele>43.2993</ele>
        <time>2022-07-11T14:59:53.163Z</time>
      </trkpt>
      <trkpt lat="44.67689" lon="0.17322">
        <ele>44.095016</ele>
        <time>2022-07-11T14:59:59.144Z</time>
      </trkpt>
      <trkpt lat="44.67709" lon="0.17339">
        <ele>45.276086</ele>
        <time>2022-07-11T15:00:09.110Z</time>
      </trkpt>
      <trkpt lat="44.6774" lon="0.1739">
        <ele>47.642128</ele>
        <time>2022-07-11T15:00:29.833Z</time>
      </trkpt>
      <trkpt lat="44.67747" lon="0.17406">
        <ele>48.318511</ele>
        <time>2022-07-11T15:00:36.408Z</time>
      </trkpt>
      <trkpt lat="44.67757" lon="0.17427">
        <ele>49.757295</ele>
        <time>2022-07-11T15:00:44.934Z</time>
      </trkpt>
      <trkpt lat="44.67766" lon="0.17448">
        <ele>51.272101</ele>
        <time>2022-07-11T15:00:53.580Z</time>
      </trkpt>
      <trkpt lat="44.67789" lon="0.17491">
        <ele>54.627569</ele>
        <time>2022-07-11T15:01:13.198Z</time>
      </trkpt>
      <trkpt lat="44.67901" lon="0.17684">
        <ele>70.885667</ele>
        <time>2022-07-11T15:02:52.122Z</time>
      </trkpt>
      <trkpt lat="44.67893" lon="0.17702">
        <ele>72.363495</ele>
        <time>2022-07-11T15:03:01.153Z</time>
      </trkpt>
      <trkpt lat="44.67874" lon="0.17719">
        <ele>74.540241</ele>
        <time>2022-07-11T15:03:13.411Z</time>
      </trkpt>
      <trkpt lat="44.67854" lon="0.17729">
        <ele>76.64795</ele>
        <time>2022-07-11T15:03:26.328Z</time>
      </trkpt>
      <trkpt lat="44.67824" lon="0.17758">
        <ele>80.159161</ele>
        <time>2022-07-11T15:03:47.311Z</time>
      </trkpt>
      <trkpt lat="44.67788" lon="0.17829">
        <ele>85.775122</ele>
        <time>2022-07-11T15:04:24.682Z</time>
      </trkpt>
      <trkpt lat="44.67732" lon="0.17902">
        <ele>92.510129</ele>
        <time>2022-07-11T15:05:07.955Z</time>
      </trkpt>
      <trkpt lat="44.67714" lon="0.1793">
        <ele>94.879867</ele>
        <time>2022-07-11T15:05:21.539Z</time>
      </trkpt>
      <trkpt lat="44.67697" lon="0.17975">
        <ele>97.828105</ele>
        <time>2022-07-11T15:05:38.098Z</time>
      </trkpt>
      <trkpt lat="44.67699" lon="0.18002">
        <ele>98.614822</ele>
        <time>2022-07-11T15:05:46.195Z</time>
      </trkpt>
      <trkpt lat="44.67709" lon="0.1802">
        <ele>99.302644</ele>
        <time>2022-07-11T15:05:53.345Z</time>
      </trkpt>
      <trkpt lat="44.6771" lon="0.18032">
        <ele>99.642314</ele>
        <time>2022-07-11T15:05:56.350Z</time>
      </trkpt>
      <trkpt lat="44.67705" lon="0.18044">
        <ele>100.069617</ele>
        <time>2022-07-11T15:06:00.473Z</time>
      </trkpt>
      <trkpt lat="44.67698" lon="0.18049">
        <ele>100.407467</ele>
        <time>2022-07-11T15:06:04.102Z</time>
      </trkpt>
      <trkpt lat="44.67706" lon="0.18093">
        <ele>101.755759</ele>
        <time>2022-07-11T15:06:15.536Z</time>
      </trkpt>
      <trkpt lat="44.67705" lon="0.18149">
        <ele>103.412132</ele>
        <time>2022-07-11T15:06:28.051Z</time>
      </trkpt>
      <trkpt lat="44.6771" lon="0.18188">
        <ele>104.574945</ele>
        <time>2022-07-11T15:06:35.282Z</time>
      </trkpt>
      <trkpt lat="44.67695" lon="0.18195">
        <ele>105.089361</ele>
        <time>2022-07-11T15:06:39.358Z</time>
      </trkpt>
      <trkpt lat="44.67673" lon="0.18318">
        <ele>105.663786</ele>
        <time>2022-07-11T15:06:57.943Z</time>
      </trkpt>
      <trkpt lat="44.67664" lon="0.18367">
        <ele>105.89094</ele>
        <time>2022-07-11T15:07:04.636Z</time>
      </trkpt>
      <trkpt lat="44.67654" lon="0.18364">
        <ele>105.953663</ele>
        <time>2022-07-11T15:07:06.532Z</time>
      </trkpt>
      <trkpt lat="44.67606" lon="0.18351">
        <ele>106.2485</ele>
        <time>2022-07-11T15:07:16.021Z</time>
      </trkpt>
      <trkpt lat="44.67604" lon="0.1834">
        <ele>106.281203</ele>
        <time>2022-07-11T15:07:17.551Z</time>
      </trkpt>
      <trkpt lat="44.67577" lon="0.18323">
        <ele>106.404261</ele>
        <time>2022-07-11T15:07:23.191Z</time>
      </trkpt>
      <trkpt lat="44.67604" lon="0.1834">
        <ele>106.527319</ele>
        <time>2022-07-11T15:07:28.978Z</time>
      </trkpt>
      <trkpt lat="44.67606" lon="0.18351">
        <ele>106.560022</ele>
        <time>2022-07-11T15:07:30.501Z</time>
      </trkpt>
      <trkpt lat="44.67598" lon="0.18373">
        <ele>106.635341</ele>
        <time>2022-07-11T15:07:33.886Z</time>
      </trkpt>
      <trkpt lat="44.67612" lon="0.18397">
        <ele>106.729491</ele>
        <time>2022-07-11T15:07:38.185Z</time>
      </trkpt>
      <trkpt lat="44.67616" lon="0.18407">
        <ele>106.76264</ele>
        <time>2022-07-11T15:07:39.663Z</time>
      </trkpt>
      <trkpt lat="44.67658" lon="0.1843">
        <ele>106.953859</ele>
        <time>2022-07-11T15:07:48.333Z</time>
      </trkpt>
      <trkpt lat="44.67689" lon="0.18448">
        <ele>106.934865</ele>
        <time>2022-07-11T15:07:55.214Z</time>
      </trkpt>
      <trkpt lat="44.67694" lon="0.18451">
        <ele>106.929921</ele>
        <time>2022-07-11T15:07:56.279Z</time>
      </trkpt>
      <trkpt lat="44.67699" lon="0.18453">
        <ele>106.92465</ele>
        <time>2022-07-11T15:07:57.393Z</time>
      </trkpt>
      <trkpt lat="44.677" lon="0.1846">
        <ele>106.919536</ele>
        <time>2022-07-11T15:07:58.510Z</time>
      </trkpt>
      <trkpt lat="44.67701" lon="0.18461">
        <ele>106.917808</ele>
        <time>2022-07-11T15:07:58.875Z</time>
      </trkpt>
      <trkpt lat="44.67698" lon="0.185">
        <ele>106.889253</ele>
        <time>2022-07-11T15:08:04.398Z</time>
      </trkpt>
      <trkpt lat="44.6769" lon="0.1863">
        <ele>106.79379</ele>
        <time>2022-07-11T15:08:20.335Z</time>
      </trkpt>
      <trkpt lat="44.6769" lon="0.18656">
        <ele>106.624065</ele>
        <time>2022-07-11T15:08:23.370Z</time>
      </trkpt>
      <trkpt lat="44.67691" lon="0.18664">
        <ele>106.497378</ele>
        <time>2022-07-11T15:08:24.241Z</time>
      </trkpt>
      <trkpt lat="44.67707" lon="0.18713">
        <ele>105.609835</ele>
        <time>2022-07-11T15:08:29.982Z</time>
      </trkpt>
      <trkpt lat="44.67734" lon="0.18787">
        <ele>104.226337</ele>
        <time>2022-07-11T15:08:38.389Z</time>
      </trkpt>
      <trkpt lat="44.67763" lon="0.18852">
        <ele>102.935654</ele>
        <time>2022-07-11T15:08:45.999Z</time>
      </trkpt>
      <trkpt lat="44.67771" lon="0.18868">
        <ele>102.619087</ele>
        <time>2022-07-11T15:08:47.858Z</time>
      </trkpt>
      <trkpt lat="44.67816" lon="0.18964">
        <ele>100.549466</ele>
        <time>2022-07-11T15:08:58.866Z</time>
      </trkpt>
      <trkpt lat="44.67868" lon="0.19072">
        <ele>98.165186</ele>
        <time>2022-07-11T15:09:12.236Z</time>
      </trkpt>
      <trkpt lat="44.67903" lon="0.19144">
        <ele>97.844261</ele>
        <time>2022-07-11T15:09:22.168Z</time>
      </trkpt>
      <trkpt lat="44.6792" lon="0.19178">
        <ele>97.767156</ele>
        <time>2022-07-11T15:09:27.417Z</time>
      </trkpt>
      <trkpt lat="44.67938" lon="0.19217">
        <ele>97.678394</ele>
        <time>2022-07-11T15:09:33.828Z</time>
      </trkpt>
      <trkpt lat="44.67947" lon="0.19236">
        <ele>97.635546</ele>
        <time>2022-07-11T15:09:37.003Z</time>
      </trkpt>
      <trkpt lat="44.68025" lon="0.19397">
        <ele>97.713453</ele>
        <time>2022-07-11T15:10:03.970Z</time>
      </trkpt>
      <trkpt lat="44.68155" lon="0.19664">
        <ele>98.360006</ele>
        <time>2022-07-11T15:10:44.775Z</time>
      </trkpt>
      <trkpt lat="44.68159" lon="0.19672">
        <ele>98.38438</ele>
        <time>2022-07-11T15:10:46.388Z</time>
      </trkpt>
      <trkpt lat="44.68198" lon="0.19753">
        <ele>99.107555</ele>
        <time>2022-07-11T15:11:02.043Z</time>
      </trkpt>
      <trkpt lat="44.68265" lon="0.19892">
        <ele>101.034524</ele>
        <time>2022-07-11T15:11:31.982Z</time>
      </trkpt>
      <trkpt lat="44.68504" lon="0.20384">
        <ele>108.715239</ele>
        <time>2022-07-11T15:13:17.668Z</time>
      </trkpt>
      <trkpt lat="44.68539" lon="0.20456">
        <ele>109.954922</ele>
        <time>2022-07-11T15:13:34.941Z</time>
      </trkpt>
      <trkpt lat="44.68596" lon="0.20569">
        <ele>111.174014</ele>
        <time>2022-07-11T15:14:00.723Z</time>
      </trkpt>
      <trkpt lat="44.6865" lon="0.20648">
        <ele>110.315771</ele>
        <time>2022-07-11T15:14:14.599Z</time>
      </trkpt>
      <trkpt lat="44.68724" lon="0.20711">
        <ele>108.984813</ele>
        <time>2022-07-11T15:14:26.841Z</time>
      </trkpt>
      <trkpt lat="44.68916" lon="0.20794">
        <ele>97.887324</ele>
        <time>2022-07-11T15:14:51.616Z</time>
      </trkpt>
      <trkpt lat="44.6894" lon="0.20794">
        <ele>96.43838</ele>
        <time>2022-07-11T15:14:54.553Z</time>
      </trkpt>
      <trkpt lat="44.68962" lon="0.2078">
        <ele>95.016612</ele>
        <time>2022-07-11T15:14:57.423Z</time>
      </trkpt>
      <trkpt lat="44.68981" lon="0.20757">
        <ele>93.536166</ele>
        <time>2022-07-11T15:15:00.438Z</time>
      </trkpt>
      <trkpt lat="44.69038" lon="0.20609">
        <ele>86.590521</ele>
        <time>2022-07-11T15:15:15.454Z</time>
      </trkpt>
      <trkpt lat="44.69049" lon="0.20585">
        <ele>85.461598</ele>
        <time>2022-07-11T15:15:17.979Z</time>
      </trkpt>
      <trkpt lat="44.69065" lon="0.20567">
        <ele>84.349498</ele>
        <time>2022-07-11T15:15:20.446Z</time>
      </trkpt>
      <trkpt lat="44.691" lon="0.20552">
        <ele>82.305839</ele>
        <time>2022-07-11T15:15:25.049Z</time>
      </trkpt>
      <trkpt lat="44.69143" lon="0.20562">
        <ele>79.895482</ele>
        <time>2022-07-11T15:15:30.576Z</time>
      </trkpt>
      <trkpt lat="44.69158" lon="0.20576">
        <ele>78.927116</ele>
        <time>2022-07-11T15:15:32.753Z</time>
      </trkpt>
      <trkpt lat="44.69221" lon="0.20628">
        <ele>76.072547</ele>
        <time>2022-07-11T15:15:42.018Z</time>
      </trkpt>
      <trkpt lat="44.69477" lon="0.20668">
        <ele>67.443761</ele>
        <time>2022-07-11T15:16:17.562Z</time>
      </trkpt>
      <trkpt lat="44.69547" lon="0.2069">
        <ele>64.834492</ele>
        <time>2022-07-11T15:16:28.027Z</time>
      </trkpt>
      <trkpt lat="44.6963" lon="0.20729">
        <ele>61.307728</ele>
        <time>2022-07-11T15:16:39.562Z</time>
      </trkpt>
      <trkpt lat="44.69664" lon="0.20754">
        <ele>59.741602</ele>
        <time>2022-07-11T15:16:44.319Z</time>
      </trkpt>
      <trkpt lat="44.69782" lon="0.20873">
        <ele>52.733809</ele>
        <time>2022-07-11T15:17:02.117Z</time>
      </trkpt>
      <trkpt lat="44.69931" lon="0.21026">
        <ele>48.371474</ele>
        <time>2022-07-11T15:17:29.704Z</time>
      </trkpt>
      <trkpt lat="44.69936" lon="0.21031">
        <ele>48.286815</ele>
        <time>2022-07-11T15:17:30.742Z</time>
      </trkpt>
      <trkpt lat="44.70051" lon="0.21147">
        <ele>47.144432</ele>
        <time>2022-07-11T15:17:54.296Z</time>
      </trkpt>
      <trkpt lat="44.70068" lon="0.21165">
        <ele>47.025674</ele>
        <time>2022-07-11T15:17:57.562Z</time>
      </trkpt>
      <trkpt lat="44.70257" lon="0.21364">
        <ele>46.739342</ele>
        <time>2022-07-11T15:18:38.522Z</time>
      </trkpt>
      <trkpt lat="44.70358" lon="0.21496">
        <ele>48.626729</ele>
        <time>2022-07-11T15:19:11.539Z</time>
      </trkpt>
      <trkpt lat="44.70571" lon="0.21773">
        <ele>52.609156</ele>
        <time>2022-07-11T15:20:22.960Z</time>
      </trkpt>
      <trkpt lat="44.70687" lon="0.21922">
        <ele>52.787378</ele>
        <time>2022-07-11T15:20:50.563Z</time>
      </trkpt>
      <trkpt lat="44.70739" lon="0.21989">
        <ele>52.098102</ele>
        <time>2022-07-11T15:21:01.525Z</time>
      </trkpt>
      <trkpt lat="44.70864" lon="0.22119">
        <ele>50.514437</ele>
        <time>2022-07-11T15:21:25.280Z</time>
      </trkpt>
      <trkpt lat="44.70915" lon="0.22171">
        <ele>49.855799</ele>
        <time>2022-07-11T15:21:35.213Z</time>
      </trkpt>
      <trkpt lat="44.70969" lon="0.22228">
        <ele>50.319956</ele>
        <time>2022-07-11T15:21:47.474Z</time>
      </trkpt>
      <trkpt lat="44.70995" lon="0.22252">
        <ele>50.778595</ele>
        <time>2022-07-11T15:21:54.465Z</time>
      </trkpt>
      <trkpt lat="44.71006" lon="0.22263">
        <ele>50.975064</ele>
        <time>2022-07-11T15:21:57.615Z</time>
      </trkpt>
      <trkpt lat="44.71186" lon="0.2244">
        <ele>55.137027</ele>
        <time>2022-07-11T15:22:58.787Z</time>
      </trkpt>
      <trkpt lat="44.71331" lon="0.22579">
        <ele>57.181914</ele>
        <time>2022-07-11T15:23:39.749Z</time>
      </trkpt>
      <trkpt lat="44.71641" lon="0.22845">
        <ele>56.560456</ele>
        <time>2022-07-11T15:24:39.651Z</time>
      </trkpt>
      <trkpt lat="44.71891" lon="0.23062">
        <ele>60.319792</ele>
        <time>2022-07-11T15:25:50.242Z</time>
      </trkpt>
      <trkpt lat="44.72094" lon="0.23231">
        <ele>62.854684</ele>
        <time>2022-07-11T15:26:47.325Z</time>
      </trkpt>
      <trkpt lat="44.72266" lon="0.23381">
        <ele>61.12196</ele>
        <time>2022-07-11T15:27:18.386Z</time>
      </trkpt>
      <trkpt lat="44.72256" lon="0.23405">
        <ele>60.834255</ele>
        <time>2022-07-11T15:27:21.173Z</time>
      </trkpt>
      <trkpt lat="44.72234" lon="0.23619">
        <ele>59.022377</ele>
        <time>2022-07-11T15:27:44.504Z</time>
      </trkpt>
      <trkpt lat="44.72229" lon="0.23684">
        <ele>58.541487</ele>
        <time>2022-07-11T15:27:52.545Z</time>
      </trkpt>
      <trkpt lat="44.7223" lon="0.23816">
        <ele>59.212815</ele>
        <time>2022-07-11T15:28:10.909Z</time>
      </trkpt>
      <trkpt lat="44.72291" lon="0.24132">
        <ele>61.584404</ele>
        <time>2022-07-11T15:29:04.751Z</time>
      </trkpt>
      <trkpt lat="44.72293" lon="0.24144">
        <ele>61.685543</ele>
        <time>2022-07-11T15:29:06.729Z</time>
      </trkpt>
      <trkpt lat="44.723" lon="0.24445">
        <ele>63.36716</ele>
        <time>2022-07-11T15:29:49.954Z</time>
      </trkpt>
      <trkpt lat="44.72297" lon="0.24627">
        <ele>65.243044</ele>
        <time>2022-07-11T15:30:18.016Z</time>
      </trkpt>
      <trkpt lat="44.72249" lon="0.24857">
        <ele>70.219637</ele>
        <time>2022-07-11T15:31:08.544Z</time>
      </trkpt>
      <trkpt lat="44.72254" lon="0.24898">
        <ele>71.220738</ele>
        <time>2022-07-11T15:31:19.102Z</time>
      </trkpt>
      <trkpt lat="44.72278" lon="0.24919">
        <ele>72.247106</ele>
        <time>2022-07-11T15:31:29.150Z</time>
      </trkpt>
      <trkpt lat="44.72338" lon="0.24927">
        <ele>74.90527</ele>
        <time>2022-07-11T15:31:51.421Z</time>
      </trkpt>
      <trkpt lat="44.72384" lon="0.24956">
        <ele>77.091492</ele>
        <time>2022-07-11T15:32:09.575Z</time>
      </trkpt>
      <trkpt lat="44.72439" lon="0.25008">
        <ele>79.93011</ele>
        <time>2022-07-11T15:32:33.512Z</time>
      </trkpt>
      <trkpt lat="44.72503" lon="0.25038">
        <ele>81.999096</ele>
        <time>2022-07-11T15:32:53.805Z</time>
      </trkpt>
      <trkpt lat="44.72509" lon="0.25041">
        <ele>82.189705</ele>
        <time>2022-07-11T15:32:55.527Z</time>
      </trkpt>
      <trkpt lat="44.72579" lon="0.25082">
        <ele>84.48604</ele>
        <time>2022-07-11T15:33:17.520Z</time>
      </trkpt>
      <trkpt lat="44.72772" lon="0.25286">
        <ele>89.802358</ele>
        <time>2022-07-11T15:34:23.250Z</time>
      </trkpt>
      <trkpt lat="44.72815" lon="0.25333">
        <ele>90.386796</ele>
        <time>2022-07-11T15:34:35.076Z</time>
      </trkpt>
      <trkpt lat="44.72877" lon="0.25422">
        <ele>91.328339</ele>
        <time>2022-07-11T15:34:52.580Z</time>
      </trkpt>
      <trkpt lat="44.72923" lon="0.25524">
        <ele>91.892915</ele>
        <time>2022-07-11T15:35:08.632Z</time>
      </trkpt>
      <trkpt lat="44.72953" lon="0.25607">
        <ele>92.329438</ele>
        <time>2022-07-11T15:35:22.456Z</time>
      </trkpt>
      <trkpt lat="44.7316" lon="0.26143">
        <ele>98.243334</ele>
        <time>2022-07-11T15:37:02.006Z</time>
      </trkpt>
      <trkpt lat="44.73216" lon="0.26302">
        <ele>101.133968</ele>
        <time>2022-07-11T15:37:37.954Z</time>
      </trkpt>
      <trkpt lat="44.73226" lon="0.26352">
        <ele>101.933947</ele>
        <time>2022-07-11T15:37:48.694Z</time>
      </trkpt>
      <trkpt lat="44.73225" lon="0.26407">
        <ele>102.78349</ele>
        <time>2022-07-11T15:37:59.970Z</time>
      </trkpt>
      <trkpt lat="44.73218" lon="0.26453">
        <ele>103.49519</ele>
        <time>2022-07-11T15:38:09.193Z</time>
      </trkpt>
      <trkpt lat="44.73174" lon="0.26768">
        <ele>107.65794</ele>
        <time>2022-07-11T15:39:03.525Z</time>
      </trkpt>
      <trkpt lat="44.73196" lon="0.26888">
        <ele>110.03462</ele>
        <time>2022-07-11T15:39:26.632Z</time>
      </trkpt>
      <trkpt lat="44.73271" lon="0.27251">
        <ele>119.551876</ele>
        <time>2022-07-11T15:40:55.715Z</time>
      </trkpt>
      <trkpt lat="44.73281" lon="0.27312">
        <ele>121.122805</ele>
        <time>2022-07-11T15:41:10.246Z</time>
      </trkpt>
      <trkpt lat="44.73283" lon="0.27358">
        <ele>122.110281</ele>
        <time>2022-07-11T15:41:20.948Z</time>
      </trkpt>
      <trkpt lat="44.73283" lon="0.2737">
        <ele>122.37728</ele>
        <time>2022-07-11T15:41:23.778Z</time>
      </trkpt>
      <trkpt lat="44.73288" lon="0.27568">
        <ele>126.512351</ele>
        <time>2022-07-11T15:42:04.076Z</time>
      </trkpt>
      <trkpt lat="44.73218" lon="0.27601">
        <ele>128.25596</ele>
        <time>2022-07-11T15:42:24.432Z</time>
      </trkpt>
      <trkpt lat="44.73222" lon="0.27717">
        <ele>130.207162</ele>
        <time>2022-07-11T15:42:47.316Z</time>
      </trkpt>
      <trkpt lat="44.7322" lon="0.27747">
        <ele>130.655079</ele>
        <time>2022-07-11T15:42:52.650Z</time>
      </trkpt>
      <trkpt lat="44.73214" lon="0.27769">
        <ele>130.954719</ele>
        <time>2022-07-11T15:42:57.424Z</time>
      </trkpt>
      <trkpt lat="44.73177" lon="0.2784">
        <ele>132.076908</ele>
        <time>2022-07-11T15:43:13.746Z</time>
      </trkpt>
      <trkpt lat="44.7314" lon="0.27958">
        <ele>133.695565</ele>
        <time>2022-07-11T15:43:37.055Z</time>
      </trkpt>
      <trkpt lat="44.7311" lon="0.28007">
        <ele>134.199641</ele>
        <time>2022-07-11T15:43:47.729Z</time>
      </trkpt>
      <trkpt lat="44.73081" lon="0.28068">
        <ele>134.766184</ele>
        <time>2022-07-11T15:43:59.296Z</time>
      </trkpt>
      <trkpt lat="44.73058" lon="0.28119">
        <ele>135.23493</ele>
        <time>2022-07-11T15:44:08.804Z</time>
      </trkpt>
      <trkpt lat="44.73021" lon="0.28179">
        <ele>135.975877</ele>
        <time>2022-07-11T15:44:21.242Z</time>
      </trkpt>
      <trkpt lat="44.7298" lon="0.28268">
        <ele>137.230754</ele>
        <time>2022-07-11T15:44:39.900Z</time>
      </trkpt>
      <trkpt lat="44.72958" lon="0.28289">
        <ele>137.683591</ele>
        <time>2022-07-11T15:44:46.827Z</time>
      </trkpt>
      <trkpt lat="44.72913" lon="0.28311">
        <ele>138.478978</ele>
        <time>2022-07-11T15:44:58.818Z</time>
      </trkpt>
      <trkpt lat="44.729" lon="0.28324">
        <ele>138.849668</ele>
        <time>2022-07-11T15:45:03.305Z</time>
      </trkpt>
      <trkpt lat="44.72894" lon="0.28341">
        <ele>139.266059</ele>
        <time>2022-07-11T15:45:06.814Z</time>
      </trkpt>
      <trkpt lat="44.72877" lon="0.28535">
        <ele>143.603316</ele>
        <time>2022-07-11T15:45:51.137Z</time>
      </trkpt>
      <trkpt lat="44.72878" lon="0.28564">
        <ele>144.237582</ele>
        <time>2022-07-11T15:45:57.298Z</time>
      </trkpt>
      <trkpt lat="44.7288" lon="0.28637">
        <ele>146.593047</ele>
        <time>2022-07-11T15:46:14.827Z</time>
      </trkpt>
      <trkpt lat="44.72867" lon="0.28729">
        <ele>149.638973</ele>
        <time>2022-07-11T15:46:39.006Z</time>
      </trkpt>
      <trkpt lat="44.72871" lon="0.2879">
        <ele>151.614544</ele>
        <time>2022-07-11T15:46:56.317Z</time>
      </trkpt>
      <trkpt lat="44.72865" lon="0.28846">
        <ele>153.758214</ele>
        <time>2022-07-11T15:47:13.010Z</time>
      </trkpt>
      <trkpt lat="44.72865" lon="0.28937">
        <ele>157.656576</ele>
        <time>2022-07-11T15:47:39.989Z</time>
      </trkpt>
      <trkpt lat="44.72875" lon="0.29097">
        <ele>164.053845</ele>
        <time>2022-07-11T15:48:31.191Z</time>
      </trkpt>
      <trkpt lat="44.72897" lon="0.2913">
        <ele>165.279957</ele>
        <time>2022-07-11T15:48:43.742Z</time>
      </trkpt>
      <trkpt lat="44.72947" lon="0.29177">
        <ele>167.52192</ele>
        <time>2022-07-11T15:49:04.300Z</time>
      </trkpt>
      <trkpt lat="44.73068" lon="0.29284">
        <ele>170.85573</ele>
        <time>2022-07-11T15:49:40.815Z</time>
      </trkpt>
      <trkpt lat="44.73095" lon="0.29312">
        <ele>171.215206</ele>
        <time>2022-07-11T15:49:47.053Z</time>
      </trkpt>
    </trkseg>
  </trk>
</gpx>